Time;durP1;ratioP1;P1;durP2;ratioP2;P2;SDS_P1;SDS_P2;PMS_P1;PMS_P2;Temp;Humidity;BMP_temperature;BMP_pressure;BME280_temperature;BME280_humidity;BME280_pressure;Samples;Min_cycle;Max_cycle;Signal;HPM_P1;HPM_P2
2023/01/27 00:02:03;;;;;;;24.20;13.18;;;;;;;2.48;65.63;100353.09;10416154;28;20045;-64
2023/01/27 00:07:05;;;;;;;25.60;13.23;;;;;;;2.44;65.71;100358.38;10417240;28;20037;-63
2023/01/27 00:17:38;;;;;;;24.67;13.70;;;;;;;2.41;65.90;100355.84;10415292;28;20056;-64
2023/01/27 00:28:04;;;;;;;23.38;15.05;;;;;;;2.10;66.33;100365.88;10413701;28;20106;-64
2023/01/27 00:38:28;;;;;;;28.85;16.40;;;;;;;2.04;66.51;100355.69;10415558;28;20409;-64
2023/01/27 00:43:29;;;;;;;24.35;15.00;;;;;;;2.03;66.47;100354.00;10412777;28;20056;-64
2023/01/27 00:48:31;;;;;;;33.95;17.90;;;;;;;1.99;66.58;100347.19;10416564;28;20053;-64
2023/01/27 00:53:33;;;;;;;28.55;15.75;;;;;;;2.00;66.48;100354.91;10416464;28;20052;-65
2023/01/27 00:58:35;;;;;;;33.42;18.10;;;;;;;1.95;66.64;100350.72;10415905;28;20413;-64
2023/01/27 01:03:36;;;;;;;32.65;18.40;;;;;;;1.92;66.81;100355.91;10415331;28;20304;-64
2023/01/27 01:08:38;;;;;;;32.13;17.65;;;;;;;1.96;66.77;100354.97;10413741;28;20140;-64
2023/01/27 01:13:41;;;;;;;32.50;17.42;;;;;;;1.95;66.80;100361.84;10430342;28;20501;-64
2023/01/27 01:18:43;;;;;;;28.00;16.48;;;;;;;1.93;67.09;100357.63;10428892;28;20049;-64
2023/01/27 01:23:45;;;;;;;46.22;21.20;;;;;;;1.94;67.06;100369.63;10429635;28;20045;-64
2023/01/27 01:28:47;;;;;;;41.58;21.05;;;;;;;1.94;67.09;100370.50;10425295;28;20059;-64
2023/01/27 01:33:48;;;;;;;42.72;20.45;;;;;;;2.00;67.09;100375.53;10422294;28;20621;-65
2023/01/27 01:38:55;;;;;;;34.92;18.80;;;;;;;1.94;67.38;100380.81;10417169;28;20051;-64
2023/01/27 01:43:57;;;;;;;40.83;20.98;;;;;;;1.99;67.18;100385.88;10418846;28;20047;-64
2023/01/27 01:49:01;;;;;;;89.72;28.60;;;;;;;2.02;67.07;100386.69;10418686;28;20057;-64
2023/01/27 01:54:12;;;;;;;55.33;23.25;;;;;;;2.00;67.26;100383.28;10418841;28;20079;-64
2023/01/27 01:59:21;;;;;;;46.13;21.20;;;;;;;1.98;67.25;100387.63;10422021;28;20049;-64
2023/01/27 02:04:26;;;;;;;39.38;19.73;;;;;;;2.00;67.17;100387.56;10418964;28;20049;-65
2023/01/27 02:09:28;;;;;;;51.70;21.10;;;;;;;1.86;67.44;100386.97;10417455;28;20056;-65
2023/01/27 02:14:30;;;;;;;64.47;23.95;;;;;;;1.79;67.55;100385.34;10419102;28;20379;-64
2023/01/27 02:19:57;;;;;;;70.15;25.95;;;;;;;1.80;67.77;100377.63;10416218;28;20072;-64
2023/01/27 02:25:08;;;;;;;46.22;20.73;;;;;;;1.81;67.77;100381.03;10419028;28;20068;-64
2023/01/27 02:30:10;;;;;;;;;;;;;;;1.56;68.41;100372.88;10422133;28;20327;-64
2023/01/27 02:35:15;;;;;;;60.83;23.80;;;;;;;1.82;67.98;100377.59;10425900;28;20381;-64
2023/01/27 02:40:17;;;;;;;53.63;22.35;;;;;;;1.80;67.79;100375.03;10428096;28;20100;-64
2023/01/27 02:45:19;;;;;;;52.75;23.55;;;;;;;1.81;67.80;100375.88;10426315;28;20303;-64
2023/01/27 02:50:21;;;;;;;143.15;31.65;;;;;;;1.91;67.66;100385.19;10427319;28;20057;-64
2023/01/27 02:55:22;;;;;;;68.00;24.45;;;;;;;2.06;67.58;100375.44;10425897;28;20064;-64
2023/01/27 03:00:24;;;;;;;84.47;27.30;;;;;;;2.13;67.56;100376.16;10387998;28;1148269;-64
2023/01/27 03:05:26;;;;;;;88.55;28.85;;;;;;;2.13;67.09;100381.34;10434222;28;20091;-64
2023/01/27 03:10:28;;;;;;;59.80;23.80;;;;;;;2.03;67.30;100390.13;10436555;28;20111;-64
2023/01/27 03:20:50;;;;;;;81.10;28.92;;;;;;;1.94;67.82;100401.44;10436285;28;20055;-64
2023/01/27 03:25:51;;;;;;;72.63;26.50;;;;;;;2.01;67.63;100391.88;10434902;28;20128;-64
2023/01/27 03:31:07;;;;;;;81.97;28.23;;;;;;;2.11;67.52;100401.16;10434764;28;20053;-64
2023/01/27 03:46:49;;;;;;;95.57;28.63;;;;;;;2.26;67.22;100390.53;10434460;28;20052;-64
2023/01/27 03:51:51;;;;;;;78.13;27.63;;;;;;;2.25;66.88;100398.31;10433456;28;20498;-64
2023/01/27 03:56:52;;;;;;;83.72;27.45;;;;;;;2.27;67.12;100405.16;10434272;28;20063;-64
2023/01/27 04:07:18;;;;;;;65.13;25.77;;;;;;;2.16;67.00;100410.50;10430297;28;20059;-63
2023/01/27 04:12:20;;;;;;;78.05;30.25;;;;;;;2.04;67.42;100415.03;10426436;28;20079;-64
2023/01/27 04:17:22;;;;;;;75.43;28.08;;;;;;;2.13;67.40;100413.13;10428332;28;20523;-64
2023/01/27 04:22:23;;;;;;;76.25;28.13;;;;;;;2.22;67.33;100417.28;10426662;28;20049;-64
2023/01/27 04:27:26;;;;;;;90.32;27.88;;;;;;;2.26;67.13;100406.00;10427309;28;20049;-64
2023/01/27 04:32:29;;;;;;;146.13;27.00;;;;;;;2.31;67.17;100406.78;10426395;28;20057;-64
2023/01/27 04:37:31;;;;;;;76.90;27.20;;;;;;;2.34;66.94;100406.72;10426595;28;20048;-65
2023/01/27 04:42:33;;;;;;;92.93;27.85;;;;;;;2.30;67.06;100405.06;10426714;28;20049;-64
2023/01/27 04:47:35;;;;;;;65.88;25.42;;;;;;;2.26;67.01;100418.91;10425584;28;20052;-65
2023/01/27 04:52:36;;;;;;;89.95;29.15;;;;;;;2.23;67.19;100416.41;10427101;28;20053;-64
2023/01/27 04:57:38;;;;;;;79.70;26.00;;;;;;;2.21;67.10;100416.41;10408176;28;20045;-64
2023/01/27 05:02:39;;;;;;;53.95;22.25;;;;;;;2.17;67.43;100417.34;10425742;28;20057;-63
2023/01/27 05:07:41;;;;;;;63.05;24.20;;;;;;;2.26;67.25;100426.66;10408411;28;20145;-64
2023/01/27 05:12:43;;;;;;;55.85;23.85;;;;;;;2.27;67.13;100419.78;10425993;28;20412;-64
2023/01/27 05:17:44;;;;;;;67.68;25.58;;;;;;;2.28;67.12;100429.19;10426306;28;20052;-64
2023/01/27 05:22:46;;;;;;;61.05;22.60;;;;;;;2.31;67.12;100430.00;10425622;28;20497;-64
2023/01/27 05:27:48;;;;;;;60.88;23.90;;;;;;;2.30;67.10;100441.19;10425654;28;20053;-64
2023/01/27 05:32:49;;;;;;;45.58;20.80;;;;;;;2.31;67.05;100442.91;10425003;28;20060;-64
2023/01/27 05:37:51;;;;;;;50.15;22.02;;;;;;;2.32;67.08;100448.94;10425810;28;20052;-64
2023/01/27 05:42:53;;;;;;;52.17;22.52;;;;;;;2.34;67.00;100453.16;10423758;28;20057;-64
2023/01/27 05:47:54;;;;;;;45.50;20.75;;;;;;;2.39;66.84;100456.53;10425718;28;20564;-64
2023/01/27 05:52:56;;;;;;;40.55;19.13;;;;;;;2.43;66.82;100457.31;10425623;28;20056;-64
2023/01/27 05:57:58;;;;;;;37.42;18.25;;;;;;;2.37;66.92;100462.59;10431535;28;20045;-64
2023/01/27 06:02:59;;;;;;;36.33;18.20;;;;;;;2.36;67.01;100472.06;10432650;28;20068;-64
2023/01/27 06:08:01;;;;;;;32.92;17.77;;;;;;;2.35;67.00;100469.50;10430900;28;20378;-64
2023/01/27 06:13:03;;;;;;;39.75;19.55;;;;;;;2.27;67.11;100472.25;10431963;28;20061;-64
2023/01/27 06:18:04;;;;;;;35.70;16.98;;;;;;;2.29;67.20;100473.06;10432816;28;20157;-64
2023/01/27 06:23:09;;;;;;;34.75;17.73;;;;;;;2.36;66.96;100486.72;10431350;28;20053;-63
2023/01/27 06:28:11;;;;;;;44.63;20.75;;;;;;;2.35;67.09;100485.00;10432079;28;20056;-64
2023/01/27 06:33:28;;;;;;;28.80;16.27;;;;;;;2.30;67.32;100486.81;10424148;28;20167;-63
2023/01/27 06:38:30;;;;;;;42.05;20.95;;;;;;;2.34;67.14;100485.91;10429791;28;20045;-64
2023/01/27 06:43:32;;;;;;;36.30;18.67;;;;;;;2.38;67.10;100488.38;10430608;28;20395;-64
2023/01/27 06:48:34;;;;;;;36.13;19.02;;;;;;;2.39;67.06;100491.81;10431217;28;20044;-64
2023/01/27 06:53:37;;;;;;;42.50;19.88;;;;;;;2.38;67.06;100495.28;10429802;28;20041;-64
2023/01/27 06:58:39;;;;;;;58.90;23.00;;;;;;;2.30;67.22;100508.31;10429881;28;20052;-63
2023/01/27 07:03:40;;;;;;;36.30;18.88;;;;;;;2.34;67.26;100507.38;10429567;28;20044;-64
2023/01/27 07:08:46;;;;;;;31.20;16.58;;;;;;;2.35;67.29;100509.09;10427945;28;20057;-64
2023/01/27 07:13:47;;;;;;;26.23;14.45;;;;;;;2.37;67.26;100504.75;10429856;28;20489;-64
2023/01/27 07:18:49;;;;;;;24.33;14.27;;;;;;;2.39;67.18;100505.56;10429285;28;20053;-64
2023/01/27 07:23:51;;;;;;;38.63;18.63;;;;;;;2.42;67.14;100509.84;10429867;28;20052;-64
2023/01/27 07:28:55;;;;;;;43.10;19.38;;;;;;;2.43;67.43;100509.81;10427657;28;20584;-65
2023/01/27 07:33:56;;;;;;;30.35;17.05;;;;;;;2.46;67.12;100519.25;10429824;28;20059;-64
2023/01/27 07:38:58;;;;;;;38.35;18.42;;;;;;;2.49;66.98;100514.88;10428598;28;20057;-64
2023/01/27 07:44:00;;;;;;;40.10;19.25;;;;;;;2.49;66.94;100512.28;10429187;28;20056;-64
2023/01/27 07:49:01;;;;;;;32.22;18.45;;;;;;;2.51;67.08;100526.00;10428003;28;20045;-64
2023/01/27 07:54:04;;;;;;;40.42;18.05;;;;;;;2.57;66.95;100537.94;10428661;28;20512;-64
2023/01/27 07:59:06;;;;;;;31.65;16.80;;;;;;;2.58;67.02;100532.75;10427069;28;20096;-64
2023/01/27 08:04:07;;;;;;;29.42;15.90;;;;;;;2.46;66.99;100530.38;10427885;28;20049;-64
2023/01/27 08:09:09;;;;;;;28.02;16.27;;;;;;;2.46;67.15;100525.22;10427357;28;20059;-64
2023/01/27 08:14:11;;;;;;;40.00;18.67;;;;;;;2.57;67.28;100527.63;10427826;28;20056;-64
2023/01/27 08:19:12;;;;;;;56.30;21.00;;;;;;;2.53;67.29;100532.00;10426081;28;20048;-64
2023/01/27 08:24:14;;;;;;;44.40;19.52;;;;;;;2.44;67.45;100539.88;10427624;28;20052;-64
2023/01/27 08:29:16;;;;;;;57.85;22.38;;;;;;;2.41;67.60;100550.28;10403178;28;20567;-64
2023/01/27 08:34:18;;;;;;;40.25;19.92;;;;;;;2.42;67.50;100562.28;10424248;28;20045;-64
2023/01/27 08:39:19;;;;;;;25.58;15.30;;;;;;;2.46;67.47;100571.69;10421986;28;20060;-65
2023/01/27 08:44:21;;;;;;;27.17;15.05;;;;;;;2.51;67.37;100567.31;10424552;28;20049;-64
2023/01/27 08:49:23;;;;;;;21.45;13.40;;;;;;;2.66;67.31;100573.97;10418906;28;20060;-64
2023/01/27 08:54:24;;;;;;;24.10;14.30;;;;;;;2.78;66.81;100574.59;10420842;28;20053;-64
2023/01/27 08:59:26;;;;;;;22.38;15.32;;;;;;;2.93;66.78;100578.59;10422113;28;20531;-64
2023/01/27 09:04:29;;;;;;;29.75;17.70;;;;;;;2.86;66.97;100580.47;10424396;28;20053;-65
2023/01/27 09:09:31;;;;;;;31.33;17.42;;;;;;;2.98;67.14;100594.88;10421242;28;20046;-64
2023/01/27 09:14:33;;;;;;;16.65;11.35;;;;;;;3.06;66.83;100595.59;10424559;28;20079;-64
2023/01/27 09:19:34;;;;;;;26.42;16.10;;;;;;;3.07;67.04;100598.16;10417332;28;20048;-65
2023/01/27 09:24:36;;;;;;;25.95;16.50;;;;;;;3.15;67.00;100594.56;10422083;28;20063;-64
2023/01/27 09:29:38;;;;;;;41.00;20.55;;;;;;;3.29;66.89;100592.56;10423712;28;20088;-64
2023/01/27 09:34:40;;;;;;;35.50;19.35;;;;;;;3.41;66.55;100593.19;10432249;28;20138;-64
2023/01/27 09:39:58;;;;;;;30.00;16.45;;;;;;;3.44;66.59;100598.28;10429602;28;20224;-64
2023/01/27 09:45:23;;;;;;;27.80;15.63;;;;;;;3.53;66.39;100592.06;10431238;28;20048;-64
2023/01/27 09:51:07;;;;;;;26.63;17.55;;;;;;;3.59;66.66;100597.13;10430154;28;20052;-64
2023/01/27 09:56:30;;;;;;;27.85;18.45;;;;;;;3.48;66.67;100594.75;10426358;28;20045;-64
2023/01/27 10:01:32;;;;;;;16.85;12.32;;;;;;;3.42;66.58;100588.84;10428269;28;20464;-64
2023/01/27 10:06:38;;;;;;;19.10;13.80;;;;;;;3.53;66.86;100589.50;10430904;28;20345;-64
2023/01/27 10:12:06;;;;;;;15.52;10.60;;;;;;;3.63;66.00;100597.03;10427623;28;20068;-64
2023/01/27 10:17:11;;;;;;;16.10;10.45;;;;;;;3.64;66.72;100606.47;10428457;28;20548;-64
2023/01/27 10:22:37;;;;;;;9.90;7.10;;;;;;;3.49;66.20;100588.72;10423808;28;20503;-64
2023/01/27 10:27:45;;;;;;;10.27;7.20;;;;;;;3.66;65.91;100598.72;10418163;28;20773;-64
2023/01/27 10:33:13;;;;;;;11.10;8.20;;;;;;;3.72;66.29;100603.75;10414484;28;20053;-65
2023/01/27 10:38:40;;;;;;;9.23;6.32;;;;;;;3.57;66.13;100609.22;10404291;28;20056;-64
2023/01/27 10:43:54;;;;;;;7.88;5.38;;;;;;;3.62;65.77;100612.59;10423386;28;20044;-65
2023/01/27 10:49:25;;;;;;;6.32;4.25;;;;;;;3.62;65.49;100610.00;10418699;28;20405;-64
2023/01/27 10:54:47;;;;;;;5.95;3.97;;;;;;;3.56;65.46;100610.97;10405715;28;20053;-65
2023/01/27 11:00:04;;;;;;;4.90;3.85;;;;;;;3.37;65.67;100620.00;10426718;28;20049;-64
2023/01/27 11:05:41;;;;;;;5.03;3.80;;;;;;;3.44;65.51;100618.97;10427689;28;20091;-64
2023/01/27 11:16:16;;;;;;;5.63;3.97;;;;;;;3.81;65.54;100625.09;10416953;28;20413;-64
2023/01/27 11:21:21;;;;;;;5.25;4.30;;;;;;;4.01;65.38;100627.28;10411914;28;20489;-63
2023/01/27 11:26:51;;;;;;;5.60;3.60;;;;;;;3.93;64.18;100629.19;10415441;28;20520;-64
2023/01/27 11:31:57;;;;;;;5.32;2.88;;;;;;;4.14;64.26;100630.44;10412099;28;20232;-64
2023/01/27 11:37:07;;;;;;;5.03;3.58;;;;;;;4.32;64.40;100623.13;10414680;28;20873;-64
2023/01/27 11:42:10;;;;;;;5.43;3.90;;;;;;;4.31;63.99;100618.81;10410200;28;20037;-64
2023/01/27 11:47:27;;;;;;;4.50;2.92;;;;;;;4.05;63.37;100618.56;10414952;28;20052;-64
2023/01/27 11:52:30;;;;;;;4.32;2.92;;;;;;;4.05;63.71;100605.63;10411519;28;20053;-64
2023/01/27 11:57:34;;;;;;;4.93;3.60;;;;;;;4.14;64.32;100602.84;10414195;28;20059;-64
2023/01/27 12:02:51;;;;;;;6.65;3.22;;;;;;;4.15;63.28;100599.34;10415099;28;20048;-64
2023/01/27 12:07:55;;;;;;;4.32;2.85;;;;;;;4.24;63.44;100588.78;10411144;28;20075;-64
2023/01/27 12:13:00;;;;;;;4.35;3.13;;;;;;;4.26;63.38;100583.56;10412070;28;20053;-64
2023/01/27 12:18:10;;;;;;;5.10;2.40;;;;;;;4.01;63.02;100583.28;10416369;28;20544;-64
2023/01/27 12:23:38;;;;;;;3.70;2.50;;;;;;;3.86;62.81;100589.66;10407971;28;20056;-64
2023/01/27 12:28:40;;;;;;;5.05;2.78;;;;;;;3.95;62.93;100577.38;10416002;28;20075;-64
2023/01/27 12:33:45;;;;;;;4.72;2.83;;;;;;;3.94;63.33;100573.97;10420442;28;20413;-64
2023/01/27 12:38:59;;;;;;;4.00;2.55;;;;;;;4.11;63.30;100568.41;10423706;28;20048;-64
2023/01/27 12:44:15;;;;;;;4.43;2.50;;;;;;;4.11;63.05;100569.25;10424165;28;20135;-63
2023/01/27 12:49:20;;;;;;;3.60;2.60;;;;;;;4.22;62.95;100569.84;10421920;28;20052;-64
2023/01/27 12:54:23;;;;;;;3.47;2.50;;;;;;;4.21;62.99;100568.13;10423801;28;20052;-64
2023/01/27 12:59:25;;;;;;;3.60;2.50;;;;;;;4.15;62.85;100564.88;10421609;28;20051;-64
2023/01/27 13:04:28;;;;;;;4.28;2.72;;;;;;;4.19;62.85;100563.91;10431591;28;20053;-64
2023/01/27 13:09:35;;;;;;;3.78;2.70;;;;;;;4.08;62.72;100565.88;10431841;28;20437;-64
2023/01/27 13:14:40;;;;;;;4.15;3.05;;;;;;;4.02;63.11;100561.72;10432149;28;20412;-64
2023/01/27 13:19:45;;;;;;;5.70;2.88;;;;;;;4.10;62.93;100559.78;10431569;28;20053;-64
2023/01/27 13:24:52;;;;;;;6.00;2.70;;;;;;;4.26;62.92;100570.63;10432618;28;20049;-64
2023/01/27 13:30:01;;;;;;;4.10;2.80;;;;;;;4.28;63.14;100568.84;10431685;28;20063;-64
2023/01/27 13:35:09;;;;;;;4.90;2.83;;;;;;;4.35;62.68;100566.06;10415642;28;20519;-63
2023/01/27 13:40:27;;;;;;;5.00;2.97;;;;;;;4.37;62.43;100574.66;10427001;28;20041;-64
2023/01/27 13:45:37;;;;;;;3.95;2.88;;;;;;;4.43;62.66;100577.09;10430989;28;20045;-64
2023/01/27 13:50:46;;;;;;;3.97;2.50;;;;;;;4.40;62.33;100578.91;10428735;28;20130;-64
2023/01/27 13:56:18;;;;;;;3.45;2.00;;;;;;;4.17;62.42;100578.63;10432163;28;20238;-64
2023/01/27 14:01:42;;;;;;;3.25;2.08;;;;;;;4.03;62.27;100578.91;10429413;28;20056;-64
2023/01/27 14:06:50;;;;;;;3.47;2.05;;;;;;;4.06;62.38;100584.03;10427655;28;20154;-64
2023/01/27 14:12:03;;;;;;;3.30;2.10;;;;;;;4.12;62.54;100577.88;10429770;28;20061;-64
2023/01/27 14:17:31;;;;;;;5.43;2.10;;;;;;;3.92;61.87;100591.28;10430321;28;20061;-64
2023/01/27 14:22:49;;;;;;;3.85;1.88;;;;;;;3.92;62.63;100601.63;10426875;28;20705;-64
2023/01/27 14:28:18;;;;;;;2.78;1.90;;;;;;;3.90;62.97;100608.56;10427916;28;20045;-64
2023/01/27 14:33:28;;;;;;;2.75;1.70;;;;;;;3.97;62.43;100615.28;10427414;28;20053;-64
2023/01/27 14:38:49;;;;;;;2.80;1.90;;;;;;;3.94;62.78;100625.72;10427798;28;20469;-64
2023/01/27 14:44:29;;;;;;;3.00;2.00;;;;;;;4.09;62.60;100620.19;10421177;28;20499;-64
2023/01/27 14:50:15;;;;;;;4.05;2.05;;;;;;;4.16;62.66;100628.69;10423927;28;20771;-65
2023/01/27 14:55:19;;;;;;;3.42;2.10;;;;;;;4.27;62.29;100619.78;10423605;28;20049;-65
2023/01/27 15:00:52;;;;;;;2.67;1.70;;;;;;;4.20;61.27;100623.41;10416932;28;20223;-65
2023/01/27 15:06:20;;;;;;;3.50;1.55;;;;;;;4.12;61.26;100627.91;10422745;28;20628;-64
2023/01/27 15:11:36;;;;;;;3.05;1.75;;;;;;;3.97;61.92;100636.00;10413894;28;20055;-65
2023/01/27 15:16:49;;;;;;;2.63;1.60;;;;;;;4.01;61.60;100647.13;10425104;28;20120;-64
2023/01/27 15:21:51;;;;;;;2.85;1.75;;;;;;;4.01;62.29;100641.94;10424897;28;20048;-65
2023/01/27 15:26:53;;;;;;;3.63;1.70;;;;;;;3.91;62.41;100641.31;10425809;28;20056;-64
2023/01/27 15:32:16;;;;;;;1.77;1.40;;;;;;;3.62;62.65;100644.47;10426372;28;20072;-64
2023/01/27 15:37:27;;;;;;;4.07;1.60;;;;;;;3.67;63.36;100652.13;10423126;28;20088;-64
2023/01/27 15:42:54;;;;;;;2.60;1.80;;;;;;;3.62;63.37;100665.16;10414982;28;20049;-65
2023/01/27 15:48:00;;;;;;;3.17;2.00;;;;;;;3.56;63.65;100669.59;10422422;28;20048;-65
2023/01/27 15:53:12;;;;;;;2.63;1.77;;;;;;;3.39;64.38;100667.34;10414492;28;20052;-64
2023/01/27 15:58:55;;;;;;;3.25;2.22;;;;;;;3.42;64.67;100669.84;10424314;28;20056;-64
2023/01/27 16:04:14;;;;;;;3.30;2.20;;;;;;;3.50;64.96;100674.88;10413171;28;20055;-64
2023/01/27 16:09:29;;;;;;;4.35;2.42;;;;;;;3.36;65.10;100687.22;10421855;28;20045;-64
2023/01/27 16:14:34;;;;;;;4.50;2.30;;;;;;;3.49;64.70;100679.22;10418316;28;20540;-65
2023/01/27 16:19:48;;;;;;;4.35;2.90;;;;;;;3.51;65.05;100677.47;10417622;28;20063;-65
2023/01/27 16:25:16;;;;;;;3.65;2.28;;;;;;;3.56;64.60;100687.69;10419907;28;20044;-64
2023/01/27 16:30:21;;;;;;;4.10;2.30;;;;;;;3.59;64.45;100690.22;10414231;28;21369;-64
2023/01/27 16:35:24;;;;;;;4.20;2.35;;;;;;;3.55;64.62;100693.75;10412230;28;20048;-64
2023/01/27 16:40:28;;;;;;;4.82;2.67;;;;;;;3.71;64.71;100692.56;10412480;28;20053;-65
2023/01/27 16:45:41;;;;;;;3.88;3.00;;;;;;;3.81;64.67;100689.78;10420589;28;20416;-65
2023/01/27 16:50:43;;;;;;;4.70;3.50;;;;;;;3.92;64.61;100687.00;10413250;28;20428;-65
2023/01/27 16:56:00;;;;;;;5.55;3.90;;;;;;;3.94;64.75;100690.41;10424073;28;20057;-64
2023/01/27 17:01:02;;;;;;;4.82;3.65;;;;;;;3.96;64.48;100693.81;10418812;28;20056;-64
2023/01/27 17:06:07;;;;;;;6.95;3.85;;;;;;;4.01;64.83;100697.16;10423453;28;20503;-65
2023/01/27 17:11:16;;;;;;;6.28;3.95;;;;;;;3.95;64.41;100699.88;10408920;28;20055;-65
2023/01/27 17:16:54;;;;;;;5.43;3.70;;;;;;;3.79;64.43;100701.03;10422323;28;20154;-65
2023/01/27 17:22:03;;;;;;;5.13;3.60;;;;;;;3.72;64.38;100705.47;10420636;28;20111;-65
2023/01/27 17:27:12;;;;;;;9.75;5.93;;;;;;;3.83;64.58;100715.63;10420947;28;20049;-65
2023/01/27 17:32:28;;;;;;;4.78;3.20;;;;;;;3.57;63.71;100716.13;10420195;28;20052;-64
2023/01/27 17:37:31;;;;;;;5.55;3.70;;;;;;;3.54;64.47;100728.25;10422050;28;20049;-65
2023/01/27 17:42:32;;;;;;;4.03;2.97;;;;;;;3.44;64.37;100731.88;10422746;28;20168;-65
2023/01/27 17:47:34;;;;;;;5.05;3.20;;;;;;;3.60;64.05;100738.50;10423869;28;20312;-65
2023/01/27 17:52:36;;;;;;;5.18;3.50;;;;;;;3.59;64.07;100741.97;10430368;28;20722;-65
2023/01/27 17:57:53;;;;;;;6.22;4.00;;;;;;;3.72;64.14;100744.28;10430747;28;20224;-65
2023/01/27 18:03:12;;;;;;;6.20;3.70;;;;;;;3.81;63.67;100751.00;10430020;28;20060;-65
2023/01/27 18:08:14;;;;;;;5.55;3.60;;;;;;;3.72;63.09;100754.63;10428259;28;20075;-65
2023/01/27 18:13:18;;;;;;;5.78;3.80;;;;;;;3.74;62.82;100764.97;10430049;28;20060;-64
2023/01/27 18:18:28;;;;;;;5.13;3.90;;;;;;;3.72;62.97;100759.78;10426793;28;20390;-65
2023/01/27 18:23:37;;;;;;;4.95;3.65;;;;;;;3.71;62.96;100757.25;10428323;28;20049;-65
2023/01/27 18:28:41;;;;;;;4.97;3.67;;;;;;;3.60;62.96;100754.03;10428634;28;20497;-65
2023/01/27 18:33:45;;;;;;;5.18;3.72;;;;;;;3.69;62.69;100761.59;10426411;28;20049;-65
2023/01/27 18:38:47;;;;;;;6.47;4.35;;;;;;;3.79;62.66;100755.38;10427409;28;20053;-65
2023/01/27 18:43:51;;;;;;;6.07;4.53;;;;;;;3.75;62.65;100766.66;10430690;28;20126;-65
2023/01/27 18:48:54;;;;;;;5.53;4.20;;;;;;;3.67;62.40;100765.94;10430511;28;20059;-65
2023/01/27 18:53:55;;;;;;;6.20;4.60;;;;;;;3.65;62.44;100771.16;10427035;28;20040;-65
2023/01/27 18:58:57;;;;;;;6.47;4.60;;;;;;;3.54;62.37;100775.66;10412874;28;20049;-64
2023/01/27 19:03:59;;;;;;;7.05;4.30;;;;;;;3.58;62.32;100771.28;10423870;28;20056;-65
2023/01/27 19:09:03;;;;;;;6.95;4.10;;;;;;;3.74;61.88;100773.56;10425513;28;20048;-65
2023/01/27 19:14:05;;;;;;;7.00;4.40;;;;;;;3.63;61.96;100780.69;10422652;28;20412;-65
2023/01/27 19:19:09;;;;;;;6.20;4.60;;;;;;;3.55;62.07;100786.84;10423279;28;20045;-65
2023/01/27 19:24:11;;;;;;;7.00;4.57;;;;;;;3.56;62.07;100793.72;10421650;28;20148;-65
2023/01/27 19:29:13;;;;;;;5.95;4.53;;;;;;;3.60;62.12;100792.81;10422874;28;20124;-65
2023/01/27 19:34:14;;;;;;;6.93;4.65;;;;;;;3.52;61.97;100795.50;10424293;28;20064;-64
2023/01/27 19:39:18;;;;;;;5.47;3.72;;;;;;;3.55;61.87;100794.63;10422596;28;20053;-65
2023/01/27 19:44:20;;;;;;;5.57;3.40;;;;;;;3.59;61.93;100799.72;10423862;28;20041;-65
2023/01/27 19:49:21;;;;;;;4.80;3.25;;;;;;;3.56;61.38;100801.47;10428530;28;20531;-64
2023/01/27 19:54:23;;;;;;;5.18;3.63;;;;;;;3.55;61.84;100803.25;10423745;28;20175;-65
2023/01/27 19:59:25;;;;;;;5.18;3.20;;;;;;;3.50;61.41;100805.03;10425193;28;20064;-65
2023/01/27 20:04:26;;;;;;;3.95;3.00;;;;;;;3.48;61.38;100811.97;10417001;28;20331;-65
2023/01/27 20:09:28;;;;;;;4.93;3.03;;;;;;;3.44;61.32;100814.63;10414923;28;20142;-65
2023/01/27 20:14:30;;;;;;;4.60;3.20;;;;;;;3.52;61.31;100817.94;10411994;28;20044;-65
2023/01/27 20:19:32;;;;;;;4.10;3.20;;;;;;;3.45;61.28;100814.63;10413274;28;20045;-64
2023/01/27 20:24:33;;;;;;;3.92;2.72;;;;;;;3.45;61.02;100817.19;10413787;28;20655;-64
2023/01/27 20:29:36;;;;;;;4.22;2.70;;;;;;;3.39;61.07;100829.38;10420191;28;20053;-65
2023/01/27 20:34:39;;;;;;;4.18;2.80;;;;;;;3.42;61.00;100829.31;10417039;28;20420;-64
2023/01/27 20:39:40;;;;;;;5.03;2.80;;;;;;;3.51;60.75;100821.41;10418016;28;20127;-65
2023/01/27 20:44:42;;;;;;;4.90;3.03;;;;;;;3.50;60.78;100820.56;10417098;28;20048;-64
2023/01/27 20:49:44;;;;;;;5.53;3.78;;;;;;;3.50;60.66;100830.91;10417648;28;20043;-64
2023/01/27 20:54:45;;;;;;;6.22;3.58;;;;;;;3.46;60.76;100830.97;10416657;28;20061;-64
2023/01/27 20:59:48;;;;;;;4.63;3.38;;;;;;;3.54;60.90;100836.84;10417773;28;20497;-64
2023/01/27 21:04:49;;;;;;;6.18;3.33;;;;;;;3.52;60.71;100841.19;10415538;28;20056;-64
2023/01/27 21:09:52;;;;;;;4.80;3.42;;;;;;;3.58;60.56;100839.38;10417184;28;20048;-64
2023/01/27 21:14:54;;;;;;;3.72;2.63;;;;;;;3.55;60.60;100846.34;10417173;28;20052;-64
2023/01/27 21:19:56;;;;;;;4.40;2.90;;;;;;;3.53;60.52;100838.63;10416765;28;20045;-63
2023/01/27 21:24:58;;;;;;;6.30;3.33;;;;;;;3.47;60.37;100848.19;10419629;28;20060;-64
2023/01/27 21:29:59;;;;;;;4.35;2.95;;;;;;;3.25;60.65;100845.13;10424790;28;20052;-64
2023/01/27 21:35:02;;;;;;;4.18;2.97;;;;;;;3.13;60.88;100850.44;10416625;28;20416;-64
2023/01/27 21:40:04;;;;;;;5.50;3.60;;;;;;;3.20;61.30;100848.63;10423219;28;20319;-63
2023/01/27 21:45:14;;;;;;;4.38;3.20;;;;;;;3.32;60.71;100853.59;10423876;28;20059;-63
2023/01/27 21:50:16;;;;;;;5.03;3.50;;;;;;;3.18;60.62;100846.06;10423125;28;20055;-63
2023/01/27 21:55:24;;;;;;;4.97;3.13;;;;;;;3.12;60.65;100847.88;10423254;28;20075;-64
2023/01/27 22:00:27;;;;;;;3.75;2.70;;;;;;;3.12;60.63;100850.47;10423188;28;20056;-64
2023/01/27 22:05:31;;;;;;;4.18;3.00;;;;;;;3.26;60.99;100853.69;10420418;28;20056;-63
2023/01/27 22:10:33;;;;;;;4.13;2.90;;;;;;;3.38;60.65;100851.78;10423655;28;20390;-63
2023/01/27 22:15:35;;;;;;;4.93;2.90;;;;;;;3.41;60.47;100853.47;10419952;28;20501;-63
2023/01/27 22:20:36;;;;;;;4.60;3.25;;;;;;;3.43;60.49;100849.13;10422597;28;20049;-64
2023/01/27 22:25:38;;;;;;;6.05;3.17;;;;;;;3.43;60.17;100849.13;10401189;28;20087;-64
2023/01/27 22:30:40;;;;;;;5.47;3.42;;;;;;;3.24;60.35;100848.56;10428950;28;20083;-64
2023/01/27 22:35:41;;;;;;;4.78;3.45;;;;;;;3.13;60.53;100842.69;10419310;28;20083;-63
2023/01/27 22:40:43;;;;;;;5.30;3.50;;;;;;;2.98;60.76;100848.09;10422368;28;20631;-63
2023/01/27 22:45:45;;;;;;;5.90;3.60;;;;;;;2.95;60.89;100846.41;10419595;28;20063;-63
2023/01/27 22:50:46;;;;;;;4.38;3.10;;;;;;;2.90;60.93;100848.22;10412893;28;20544;-63
2023/01/27 22:55:58;;;;;;;5.03;3.30;;;;;;;2.82;60.60;100854.34;10420540;28;20087;-63
2023/01/27 23:01:04;;;;;;;5.80;3.60;;;;;;;2.96;60.51;100845.53;10421093;28;20571;-64
2023/01/27 23:06:07;;;;;;;5.07;3.42;;;;;;;2.96;60.72;100844.69;10419542;28;20049;-63
2023/01/27 23:11:09;;;;;;;4.15;3.05;;;;;;;3.08;60.84;100844.50;10419822;28;20509;-64
2023/01/27 23:16:10;;;;;;;4.78;3.03;;;;;;;2.96;60.82;100845.53;10421386;28;20263;-63
2023/01/27 23:21:12;;;;;;;4.35;2.80;;;;;;;2.69;61.09;100853.66;10422451;28;20813;-63
2023/01/27 23:26:14;;;;;;;5.65;3.05;;;;;;;2.78;60.98;100845.81;10419946;28;20512;-63
2023/01/27 23:31:16;;;;;;;4.60;2.75;;;;;;;2.67;61.11;100855.41;10422162;28;20064;-63
2023/01/27 23:36:17;;;;;;;3.95;2.80;;;;;;;2.65;61.01;100854.56;10419889;28;20269;-63
2023/01/27 23:41:20;;;;;;;5.22;2.88;;;;;;;2.78;60.74;100853.56;10418640;28;20075;-63
2023/01/27 23:46:25;;;;;;;4.57;2.80;;;;;;;2.66;60.65;100858.03;10402483;28;20059;-64
2023/01/27 23:51:27;;;;;;;5.45;3.00;;;;;;;2.71;60.84;100864.81;10416819;28;20051;-64
2023/01/27 23:56:28;;;;;;;4.97;2.92;;;;;;;2.75;60.94;100873.38;10415814;28;20040;-64
